CMP159 MPTO-SEQM
Flight info
| Callsign | CMP159 |
|---|---|
| Flight time | 1h 28m |
| Altitude | 34000 |
| Route | DANDA1A DANDA DCT MILAT UM674 NEGAL G426 QIT |
| Aircraft | B738/M-SDE2E3FGHIRWXY/LB1 |
Departure
| Time | 2026-05-06 21:06 |
|---|---|
| Airport | Tocumen International Airport (MPTO) |
Arrival
| Time | 2026-05-06 22:34 |
|---|---|
| Airport | Mariscal Sucre International Airport (SEQM) |
| Time | Latitude | Longitude | Altitude | Speed | Heading |
|---|---|---|---|---|---|
| 2026-05-06 20:41 | 9.07006 | -79.38511 | 30 ft | 0 kts | 318° |
| 2026-05-06 20:56 | 9.06993 | -79.38498 | 29 ft | 4 kts | 302° |
| 2026-05-06 20:56 | 9.06984 | -79.38474 | 29 ft | 4 kts | 265° |
| 2026-05-06 20:56 | 9.06993 | -79.38450 | 29 ft | 4 kts | 228° |
| 2026-05-06 20:56 | 9.07007 | -79.38438 | 29 ft | 0 kts | 208° |
| 2026-05-06 20:59 | 9.07003 | -79.38440 | 29 ft | 2 kts | 208° |
| 2026-05-06 20:59 | 9.06977 | -79.38454 | 29 ft | 6 kts | 208° |
| 2026-05-06 20:59 | 9.06922 | -79.38455 | 26 ft | 10 kts | 144° |
| 2026-05-06 21:00 | 9.06884 | -79.38393 | 25 ft | 10 kts | 123° |
| 2026-05-06 21:00 | 9.06819 | -79.38378 | 25 ft | 12 kts | 205° |
| 2026-05-06 21:00 | 9.06731 | -79.38422 | 25 ft | 15 kts | 207° |
| 2026-05-06 21:00 | 9.06643 | -79.38468 | 24 ft | 14 kts | 207° |
| 2026-05-06 21:01 | 9.06559 | -79.38513 | 24 ft | 13 kts | 208° |
| 2026-05-06 21:01 | 9.06479 | -79.38556 | 24 ft | 13 kts | 207° |
| 2026-05-06 21:01 | 9.06400 | -79.38598 | 25 ft | 13 kts | 207° |
| 2026-05-06 21:01 | 9.06272 | -79.38623 | 26 ft | 23 kts | 182° |
| 2026-05-06 21:02 | 9.06120 | -79.38665 | 26 ft | 23 kts | 209° |
| 2026-05-06 21:02 | 9.05984 | -79.38742 | 26 ft | 22 kts | 209° |
| 2026-05-06 21:02 | 9.05853 | -79.38817 | 26 ft | 21 kts | 210° |
| 2026-05-06 21:02 | 9.05727 | -79.38891 | 26 ft | 21 kts | 210° |
| 2026-05-06 21:03 | 9.05604 | -79.38963 | 26 ft | 20 kts | 210° |
| 2026-05-06 21:03 | 9.05484 | -79.39033 | 29 ft | 20 kts | 210° |
| 2026-05-06 21:03 | 9.05367 | -79.39100 | 29 ft | 19 kts | 209° |
| 2026-05-06 21:03 | 9.05255 | -79.39164 | 29 ft | 18 kts | 210° |
| 2026-05-06 21:04 | 9.05146 | -79.39227 | 29 ft | 18 kts | 209° |
| 2026-05-06 21:04 | 9.05040 | -79.39287 | 29 ft | 17 kts | 209° |
| 2026-05-06 21:04 | 9.04939 | -79.39345 | 29 ft | 16 kts | 210° |
| 2026-05-06 21:04 | 9.04836 | -79.39372 | 29 ft | 15 kts | 150° |
| 2026-05-06 21:05 | 9.04786 | -79.39289 | 30 ft | 11 kts | 118° |
| 2026-05-06 21:05 | 9.04817 | -79.39230 | 30 ft | 12 kts | 30° |
| 2026-05-06 21:05 | 9.05072 | -79.39084 | 30 ft | 79 kts | 29° |
| 2026-05-06 21:05 | 9.05758 | -79.38693 | 30 ft | 145 kts | 29° |
| 2026-05-06 21:06 | 9.06780 | -79.38101 | 232 ft | 183 kts | 31° |
| 2026-05-06 21:06 | 9.07897 | -79.37425 | 993 ft | 188 kts | 32° |
| 2026-05-06 21:06 | 9.08834 | -79.36533 | 1852 ft | 190 kts | 59° |
| 2026-05-06 21:06 | 9.09183 | -79.35197 | 2410 ft | 209 kts | 91° |
| 2026-05-06 21:07 | 9.08847 | -79.33705 | 2870 ft | 224 kts | 108° |
| 2026-05-06 21:07 | 9.08346 | -79.32191 | 3401 ft | 234 kts | 104° |
| 2026-05-06 21:07 | 9.07940 | -79.30541 | 3832 ft | 246 kts | 101° |
| 2026-05-06 21:07 | 9.07600 | -79.28829 | 4427 ft | 256 kts | 99° |
| 2026-05-06 21:08 | 9.07297 | -79.27037 | 5223 ft | 259 kts | 98° |
| 2026-05-06 21:08 | 9.07020 | -79.25229 | 6078 ft | 261 kts | 97° |
| 2026-05-06 21:08 | 9.06749 | -79.23402 | 6635 ft | 262 kts | 97° |
| 2026-05-06 21:08 | 9.06454 | -79.21590 | 7304 ft | 264 kts | 105° |
| 2026-05-06 21:09 | 9.05562 | -79.19961 | 8047 ft | 270 kts | 133° |
| 2026-05-06 21:09 | 9.03983 | -79.18915 | 8769 ft | 281 kts | 159° |
| 2026-05-06 21:09 | 9.01996 | -79.18773 | 9441 ft | 297 kts | 191° |
| 2026-05-06 21:09 | 9.00050 | -79.19516 | 10215 ft | 302 kts | 202° |
| 2026-05-06 21:10 | 8.98137 | -79.20428 | 10938 ft | 307 kts | 203° |
| 2026-05-06 21:10 | 8.96199 | -79.21374 | 11656 ft | 310 kts | 202° |
| 2026-05-06 21:10 | 8.94229 | -79.22326 | 12249 ft | 321 kts | 202° |
| 2026-05-06 21:10 | 8.92156 | -79.23311 | 12443 ft | 345 kts | 202° |
| 2026-05-06 21:11 | 8.89912 | -79.24366 | 12699 ft | 365 kts | 202° |
| 2026-05-06 21:11 | 8.87571 | -79.25462 | 13146 ft | 375 kts | 202° |
| 2026-05-06 21:11 | 8.85194 | -79.26572 | 13756 ft | 377 kts | 202° |
| 2026-05-06 21:11 | 8.82803 | -79.27688 | 14323 ft | 379 kts | 201° |
| 2026-05-06 21:12 | 8.80388 | -79.28812 | 14902 ft | 386 kts | 202° |
| 2026-05-06 21:12 | 8.77928 | -79.29956 | 15514 ft | 389 kts | 201° |
| 2026-05-06 21:12 | 8.75467 | -79.31101 | 16154 ft | 390 kts | 201° |
| 2026-05-06 21:12 | 8.72988 | -79.32254 | 16689 ft | 394 kts | 201° |
| 2026-05-06 21:13 | 8.70487 | -79.33418 | 17167 ft | 398 kts | 201° |
| 2026-05-06 21:13 | 8.67964 | -79.34592 | 17658 ft | 401 kts | 201° |
| 2026-05-06 21:13 | 8.65413 | -79.35780 | 18149 ft | 405 kts | 201° |
| 2026-05-06 21:13 | 8.62843 | -79.36975 | 18577 ft | 408 kts | 201° |
| 2026-05-06 21:14 | 8.60223 | -79.38079 | 18982 ft | 408 kts | 192° |
| 2026-05-06 21:14 | 8.57432 | -79.38428 | 19382 ft | 404 kts | 178° |
| 2026-05-06 21:14 | 8.54611 | -79.38443 | 19809 ft | 406 kts | 176° |
| 2026-05-06 21:14 | 8.51807 | -79.38420 | 20195 ft | 410 kts | 176° |
| 2026-05-06 21:15 | 8.48908 | -79.38390 | 20597 ft | 413 kts | 176° |
| 2026-05-06 21:15 | 8.46061 | -79.38367 | 20972 ft | 416 kts | 176° |
| 2026-05-06 21:15 | 8.43151 | -79.38354 | 21364 ft | 419 kts | 177° |
| 2026-05-06 21:15 | 8.40224 | -79.38349 | 21749 ft | 422 kts | 177° |
| 2026-05-06 21:16 | 8.37237 | -79.38350 | 22128 ft | 425 kts | 177° |
| 2026-05-06 21:16 | 8.34304 | -79.38355 | 22491 ft | 428 kts | 178° |
| 2026-05-06 21:16 | 8.31316 | -79.38362 | 22853 ft | 431 kts | 178° |
| 2026-05-06 21:16 | 8.28302 | -79.38369 | 23208 ft | 434 kts | 178° |
| 2026-05-06 21:17 | 8.25274 | -79.38377 | 23527 ft | 436 kts | 178° |
| 2026-05-06 21:17 | 8.22227 | -79.38385 | 23823 ft | 438 kts | 178° |
| 2026-05-06 21:17 | 8.19171 | -79.38393 | 24140 ft | 440 kts | 178° |
| 2026-05-06 21:17 | 8.16106 | -79.38400 | 24432 ft | 442 kts | 178° |
| 2026-05-06 21:18 | 8.13023 | -79.38407 | 24721 ft | 444 kts | 178° |
| 2026-05-06 21:18 | 8.09925 | -79.38415 | 25012 ft | 446 kts | 178° |
| 2026-05-06 21:18 | 8.06814 | -79.38422 | 25301 ft | 448 kts | 178° |
| 2026-05-06 21:18 | 8.03693 | -79.38429 | 25582 ft | 450 kts | 178° |
| 2026-05-06 21:19 | 8.00598 | -79.38436 | 25855 ft | 452 kts | 179° |
| 2026-05-06 21:19 | 7.97443 | -79.38444 | 26129 ft | 454 kts | 179° |
| 2026-05-06 21:19 | 7.94275 | -79.38451 | 26400 ft | 455 kts | 179° |
| 2026-05-06 21:19 | 7.91095 | -79.38459 | 26673 ft | 457 kts | 179° |
| 2026-05-06 21:20 | 7.87904 | -79.38466 | 26934 ft | 459 kts | 179° |
| 2026-05-06 21:20 | 7.84698 | -79.38473 | 27184 ft | 461 kts | 179° |
| 2026-05-06 21:20 | 7.81484 | -79.38481 | 27436 ft | 463 kts | 179° |
| 2026-05-06 21:20 | 7.78255 | -79.38488 | 27692 ft | 465 kts | 179° |
| 2026-05-06 21:21 | 7.75011 | -79.38496 | 27934 ft | 467 kts | 179° |
| 2026-05-06 21:21 | 7.71760 | -79.38503 | 28163 ft | 469 kts | 179° |
| 2026-05-06 21:21 | 7.68530 | -79.38511 | 28395 ft | 470 kts | 179° |
| 2026-05-06 21:21 | 7.65250 | -79.38518 | 28616 ft | 472 kts | 179° |
| 2026-05-06 21:22 | 7.61960 | -79.38526 | 28833 ft | 474 kts | 179° |
| 2026-05-06 21:22 | 7.58651 | -79.38534 | 29059 ft | 476 kts | 179° |
| 2026-05-06 21:22 | 7.55338 | -79.38541 | 29297 ft | 477 kts | 179° |
| 2026-05-06 21:22 | 7.52015 | -79.38549 | 29617 ft | 476 kts | 179° |
| 2026-05-06 21:23 | 7.48709 | -79.38557 | 29966 ft | 475 kts | 179° |
| 2026-05-06 21:23 | 7.45411 | -79.38565 | 30242 ft | 474 kts | 179° |
| 2026-05-06 21:23 | 7.42106 | -79.38572 | 30493 ft | 474 kts | 179° |
| 2026-05-06 21:23 | 7.38811 | -79.38580 | 30775 ft | 473 kts | 179° |
| 2026-05-06 21:24 | 7.35521 | -79.38587 | 31079 ft | 472 kts | 180° |
| 2026-05-06 21:24 | 7.32238 | -79.38595 | 31400 ft | 471 kts | 180° |
| 2026-05-06 21:24 | 7.28968 | -79.38546 | 31680 ft | 470 kts | 175° |
| 2026-05-06 21:24 | 7.25706 | -79.38246 | 31980 ft | 468 kts | 173° |
| 2026-05-06 21:25 | 7.22469 | -79.37853 | 32295 ft | 467 kts | 172° |
| 2026-05-06 21:25 | 7.19254 | -79.37429 | 32621 ft | 465 kts | 172° |
| 2026-05-06 21:25 | 7.16090 | -79.37011 | 32932 ft | 464 kts | 172° |
| 2026-05-06 21:25 | 7.12891 | -79.36599 | 33257 ft | 462 kts | 172° |
| 2026-05-06 21:26 | 7.09699 | -79.36200 | 33597 ft | 460 kts | 173° |
| 2026-05-06 21:26 | 7.06518 | -79.35813 | 33866 ft | 460 kts | 173° |
| 2026-05-06 21:26 | 7.03325 | -79.35431 | 33842 ft | 463 kts | 173° |
| 2026-05-06 21:27 | 6.96963 | -79.34678 | 33848 ft | 458 kts | 173° |
| 2026-05-06 21:27 | 6.90659 | -79.33934 | 33858 ft | 454 kts | 173° |
| 2026-05-06 21:28 | 6.84401 | -79.33193 | 33858 ft | 451 kts | 172° |
| 2026-05-06 21:28 | 6.78169 | -79.32455 | 33862 ft | 450 kts | 172° |
| 2026-05-06 21:29 | 6.71963 | -79.31720 | 33863 ft | 449 kts | 172° |
| 2026-05-06 21:29 | 6.65799 | -79.30990 | 33861 ft | 448 kts | 172° |
| 2026-05-06 21:30 | 6.59601 | -79.30256 | 33858 ft | 448 kts | 172° |
| 2026-05-06 21:30 | 6.53399 | -79.29522 | 33862 ft | 449 kts | 172° |
| 2026-05-06 21:31 | 6.47192 | -79.28787 | 33863 ft | 450 kts | 172° |
| 2026-05-06 21:31 | 6.40970 | -79.28051 | 33864 ft | 451 kts | 172° |
| 2026-05-06 21:32 | 6.34722 | -79.27312 | 33867 ft | 452 kts | 172° |
| 2026-05-06 21:32 | 6.25355 | -79.26205 | 33863 ft | 455 kts | 172° |
| 2026-05-06 21:33 | 6.19051 | -79.25460 | 33865 ft | 457 kts | 172° |
| 2026-05-06 21:33 | 6.12719 | -79.24712 | 33865 ft | 458 kts | 172° |
| 2026-05-06 21:34 | 6.06364 | -79.23961 | 33864 ft | 459 kts | 172° |
| 2026-05-06 21:34 | 6.00062 | -79.23216 | 33862 ft | 459 kts | 172° |
| 2026-05-06 21:35 | 5.93715 | -79.22467 | 33864 ft | 459 kts | 172° |
| 2026-05-06 21:35 | 5.87369 | -79.21726 | 33860 ft | 459 kts | 172° |
| 2026-05-06 21:36 | 5.81021 | -79.20990 | 33859 ft | 458 kts | 172° |
| 2026-05-06 21:36 | 5.74691 | -79.20256 | 33863 ft | 457 kts | 172° |
| 2026-05-06 21:37 | 5.68370 | -79.19522 | 33862 ft | 457 kts | 172° |
| 2026-05-06 21:37 | 5.62056 | -79.18788 | 33863 ft | 456 kts | 172° |
| 2026-05-06 21:38 | 5.55746 | -79.18055 | 33864 ft | 456 kts | 172° |
| 2026-05-06 21:38 | 5.49489 | -79.17328 | 33863 ft | 455 kts | 172° |
| 2026-05-06 21:39 | 5.43183 | -79.16596 | 33865 ft | 455 kts | 172° |
| 2026-05-06 21:39 | 5.36878 | -79.15864 | 33865 ft | 455 kts | 172° |
| 2026-05-06 21:40 | 5.30624 | -79.15138 | 33866 ft | 455 kts | 172° |
| 2026-05-06 21:40 | 5.24333 | -79.14408 | 33861 ft | 455 kts | 172° |
| 2026-05-06 21:41 | 5.18043 | -79.13679 | 33860 ft | 455 kts | 172° |
| 2026-05-06 21:41 | 5.11752 | -79.12949 | 33867 ft | 455 kts | 172° |
| 2026-05-06 21:42 | 5.05467 | -79.12220 | 33867 ft | 455 kts | 172° |
| 2026-05-06 21:42 | 4.99184 | -79.11491 | 33864 ft | 454 kts | 172° |
| 2026-05-06 21:43 | 4.92902 | -79.10763 | 33868 ft | 454 kts | 172° |
| 2026-05-06 21:43 | 4.86630 | -79.10036 | 33866 ft | 453 kts | 172° |
| 2026-05-06 21:44 | 4.80408 | -79.09315 | 33865 ft | 453 kts | 172° |
| 2026-05-06 21:44 | 4.74149 | -79.08590 | 33866 ft | 452 kts | 172° |
| 2026-05-06 21:45 | 4.67909 | -79.07868 | 33866 ft | 451 kts | 172° |
| 2026-05-06 21:45 | 4.61676 | -79.07146 | 33865 ft | 450 kts | 171° |
| 2026-05-06 21:46 | 4.55454 | -79.06425 | 33862 ft | 449 kts | 171° |
| 2026-05-06 21:46 | 4.49288 | -79.05711 | 33861 ft | 448 kts | 171° |
| 2026-05-06 21:47 | 4.43099 | -79.04995 | 33861 ft | 447 kts | 171° |
| 2026-05-06 21:47 | 4.37923 | -79.04396 | 33863 ft | 447 kts | 171° |
| 2026-05-06 21:48 | 4.31749 | -79.03681 | 33864 ft | 446 kts | 171° |
| 2026-05-06 21:48 | 4.25619 | -79.02972 | 33863 ft | 446 kts | 171° |
| 2026-05-06 21:49 | 4.19444 | -79.02257 | 33861 ft | 446 kts | 171° |
| 2026-05-06 21:49 | 4.13282 | -79.01545 | 33864 ft | 446 kts | 171° |
| 2026-05-06 21:50 | 4.07117 | -79.00832 | 33862 ft | 446 kts | 171° |
| 2026-05-06 21:50 | 4.00947 | -79.00118 | 33868 ft | 446 kts | 171° |
| 2026-05-06 21:51 | 3.94822 | -78.99410 | 33865 ft | 446 kts | 171° |
| 2026-05-06 21:51 | 3.88642 | -78.98696 | 33866 ft | 446 kts | 171° |
| 2026-05-06 21:52 | 3.82464 | -78.97981 | 33867 ft | 447 kts | 171° |
| 2026-05-06 21:52 | 3.76285 | -78.97267 | 33868 ft | 447 kts | 171° |
| 2026-05-06 21:53 | 3.70099 | -78.96553 | 33869 ft | 448 kts | 172° |
| 2026-05-06 21:53 | 3.63901 | -78.95837 | 33867 ft | 448 kts | 172° |
| 2026-05-06 21:54 | 3.57735 | -78.95124 | 33871 ft | 449 kts | 172° |
| 2026-05-06 21:54 | 3.51533 | -78.94408 | 33866 ft | 449 kts | 172° |
| 2026-05-06 21:55 | 3.45314 | -78.93690 | 33867 ft | 449 kts | 172° |
| 2026-05-06 21:55 | 3.39106 | -78.92973 | 33872 ft | 449 kts | 172° |
| 2026-05-06 21:56 | 3.32894 | -78.92256 | 33872 ft | 449 kts | 172° |
| 2026-05-06 21:56 | 3.26718 | -78.91543 | 33867 ft | 449 kts | 172° |
| 2026-05-06 21:57 | 3.20508 | -78.90826 | 33873 ft | 449 kts | 172° |
| 2026-05-06 21:57 | 3.14301 | -78.90110 | 33870 ft | 449 kts | 172° |
| 2026-05-06 21:58 | 3.08098 | -78.89394 | 33868 ft | 449 kts | 172° |
| 2026-05-06 21:58 | 3.01879 | -78.88676 | 33872 ft | 449 kts | 172° |
| 2026-05-06 21:59 | 2.95704 | -78.87964 | 33870 ft | 449 kts | 172° |
| 2026-05-06 21:59 | 2.89494 | -78.87248 | 33870 ft | 449 kts | 172° |
| 2026-05-06 22:00 | 2.83283 | -78.86531 | 33873 ft | 449 kts | 172° |
| 2026-05-06 22:00 | 2.77045 | -78.85812 | 33865 ft | 450 kts | 172° |
| 2026-05-06 22:01 | 2.70818 | -78.85094 | 33872 ft | 450 kts | 172° |
| 2026-05-06 22:01 | 2.64594 | -78.84376 | 33876 ft | 450 kts | 172° |
| 2026-05-06 22:02 | 2.58366 | -78.83658 | 33867 ft | 451 kts | 172° |
| 2026-05-06 22:02 | 2.52136 | -78.82940 | 33868 ft | 451 kts | 172° |
| 2026-05-06 22:03 | 2.45938 | -78.82225 | 33867 ft | 451 kts | 172° |
| 2026-05-06 22:03 | 2.39699 | -78.81506 | 33866 ft | 451 kts | 172° |
| 2026-05-06 22:04 | 2.33462 | -78.80787 | 33865 ft | 451 kts | 172° |
| 2026-05-06 22:04 | 2.27227 | -78.80069 | 33867 ft | 451 kts | 172° |
| 2026-05-06 22:05 | 2.20991 | -78.79350 | 33868 ft | 451 kts | 172° |
| 2026-05-06 22:05 | 2.14794 | -78.78636 | 33865 ft | 450 kts | 172° |
| 2026-05-06 22:06 | 2.08563 | -78.77918 | 33873 ft | 450 kts | 172° |
| 2026-05-06 22:06 | 2.02334 | -78.77200 | 33878 ft | 450 kts | 172° |
| 2026-05-06 22:07 | 1.96134 | -78.76486 | 33884 ft | 450 kts | 172° |
| 2026-05-06 22:07 | 1.89905 | -78.75768 | 33886 ft | 450 kts | 172° |
| 2026-05-06 22:08 | 1.83679 | -78.75051 | 33857 ft | 450 kts | 173° |
| 2026-05-06 22:08 | 1.77450 | -78.74314 | 33857 ft | 450 kts | 172° |
| 2026-05-06 22:09 | 1.71234 | -78.73537 | 33860 ft | 449 kts | 172° |
| 2026-05-06 22:09 | 1.65068 | -78.72765 | 33868 ft | 449 kts | 172° |
| 2026-05-06 22:10 | 1.58859 | -78.71993 | 33881 ft | 449 kts | 172° |
| 2026-05-06 22:10 | 1.52662 | -78.71225 | 33894 ft | 449 kts | 172° |
| 2026-05-06 22:11 | 1.46458 | -78.70456 | 33914 ft | 449 kts | 172° |
| 2026-05-06 22:11 | 1.40267 | -78.69689 | 33928 ft | 449 kts | 172° |
| 2026-05-06 22:12 | 1.34062 | -78.68920 | 33942 ft | 449 kts | 172° |
| 2026-05-06 22:12 | 1.27899 | -78.68137 | 33951 ft | 449 kts | 172° |
| 2026-05-06 22:13 | 1.21693 | -78.67328 | 33966 ft | 449 kts | 172° |
| 2026-05-06 22:13 | 1.15500 | -78.66520 | 33978 ft | 449 kts | 172° |
| 2026-05-06 22:14 | 1.09297 | -78.65714 | 33991 ft | 449 kts | 172° |
| 2026-05-06 22:14 | 1.03093 | -78.64910 | 34006 ft | 450 kts | 172° |
| 2026-05-06 22:15 | 0.96883 | -78.64105 | 34017 ft | 450 kts | 172° |
| 2026-05-06 22:15 | 0.90666 | -78.63299 | 34037 ft | 450 kts | 172° |
| 2026-05-06 22:16 | 0.84479 | -78.62497 | 34055 ft | 450 kts | 172° |
| 2026-05-06 22:16 | 0.81362 | -78.62092 | 33715 ft | 455 kts | 172° |
| 2026-05-06 22:16 | 0.78211 | -78.61684 | 33170 ft | 454 kts | 171° |
| 2026-05-06 22:17 | 0.75075 | -78.61277 | 32548 ft | 454 kts | 171° |
| 2026-05-06 22:17 | 0.71933 | -78.60870 | 31915 ft | 455 kts | 171° |
| 2026-05-06 22:17 | 0.68793 | -78.60463 | 31267 ft | 456 kts | 171° |
| 2026-05-06 22:17 | 0.65642 | -78.60055 | 30744 ft | 454 kts | 171° |
| 2026-05-06 22:18 | 0.62516 | -78.59650 | 30230 ft | 452 kts | 170° |
| 2026-05-06 22:18 | 0.59411 | -78.59247 | 29666 ft | 449 kts | 170° |
| 2026-05-06 22:18 | 0.56316 | -78.58846 | 29142 ft | 445 kts | 170° |
| 2026-05-06 22:18 | 0.53262 | -78.58450 | 28630 ft | 440 kts | 170° |
| 2026-05-06 22:19 | 0.50238 | -78.58058 | 28133 ft | 436 kts | 170° |
| 2026-05-06 22:19 | 0.47242 | -78.57671 | 27653 ft | 433 kts | 170° |
| 2026-05-06 22:19 | 0.44268 | -78.57288 | 27169 ft | 430 kts | 170° |
| 2026-05-06 22:19 | 0.41310 | -78.56908 | 26686 ft | 427 kts | 170° |
| 2026-05-06 22:20 | 0.38377 | -78.56531 | 26199 ft | 424 kts | 170° |
| 2026-05-06 22:20 | 0.35492 | -78.56160 | 25718 ft | 422 kts | 170° |
| 2026-05-06 22:20 | 0.32578 | -78.55785 | 25237 ft | 420 kts | 170° |
| 2026-05-06 22:20 | 0.29688 | -78.55413 | 24740 ft | 419 kts | 170° |
| 2026-05-06 22:21 | 0.26802 | -78.55041 | 24235 ft | 417 kts | 170° |
| 2026-05-06 22:21 | 0.23928 | -78.54671 | 23771 ft | 415 kts | 170° |
| 2026-05-06 22:21 | 0.21065 | -78.54302 | 23199 ft | 414 kts | 170° |
| 2026-05-06 22:21 | 0.18217 | -78.53936 | 22722 ft | 410 kts | 170° |
| 2026-05-06 22:22 | 0.15396 | -78.53572 | 22225 ft | 408 kts | 171° |
| 2026-05-06 22:22 | 0.12581 | -78.53210 | 21757 ft | 405 kts | 171° |
| 2026-05-06 22:22 | 0.09796 | -78.52851 | 21307 ft | 402 kts | 171° |
| 2026-05-06 22:22 | 0.07030 | -78.52495 | 20828 ft | 400 kts | 171° |
| 2026-05-06 22:23 | 0.04276 | -78.52141 | 20366 ft | 397 kts | 171° |
| 2026-05-06 22:23 | 0.01574 | -78.51792 | 19889 ft | 396 kts | 171° |
| 2026-05-06 22:23 | -0.01156 | -78.51441 | 19430 ft | 394 kts | 171° |
| 2026-05-06 22:23 | -0.03865 | -78.51093 | 18970 ft | 391 kts | 171° |
| 2026-05-06 22:24 | -0.06544 | -78.50798 | 18782 ft | 381 kts | 172° |
| 2026-05-06 22:24 | -0.09154 | -78.50544 | 18592 ft | 371 kts | 172° |
| 2026-05-06 22:24 | -0.11662 | -78.50300 | 18404 ft | 353 kts | 172° |
| 2026-05-06 22:24 | -0.14043 | -78.50065 | 18281 ft | 335 kts | 172° |
| 2026-05-06 22:25 | -0.16309 | -78.49870 | 18140 ft | 320 kts | 173° |
| 2026-05-06 22:25 | -0.18489 | -78.49701 | 17908 ft | 309 kts | 173° |
| 2026-05-06 22:25 | -0.20607 | -78.49539 | 17663 ft | 302 kts | 173° |
| 2026-05-06 22:25 | -0.22693 | -78.49378 | 17325 ft | 295 kts | 173° |
| 2026-05-06 22:26 | -0.24703 | -78.49222 | 17057 ft | 284 kts | 173° |
| 2026-05-06 22:26 | -0.26615 | -78.49071 | 16800 ft | 275 kts | 173° |
| 2026-05-06 22:26 | -0.28502 | -78.48922 | 16548 ft | 270 kts | 173° |
| 2026-05-06 22:26 | -0.30358 | -78.48774 | 16315 ft | 266 kts | 173° |
| 2026-05-06 22:27 | -0.32200 | -78.48628 | 16080 ft | 263 kts | 173° |
| 2026-05-06 22:27 | -0.34032 | -78.48482 | 15861 ft | 265 kts | 173° |
| 2026-05-06 22:27 | -0.35885 | -78.48327 | 15630 ft | 268 kts | 169° |
| 2026-05-06 22:27 | -0.37644 | -78.47779 | 15366 ft | 263 kts | 150° |
| 2026-05-06 22:28 | -0.39128 | -78.46749 | 15147 ft | 258 kts | 137° |
| 2026-05-06 22:28 | -0.40401 | -78.45512 | 14923 ft | 254 kts | 132° |
| 2026-05-06 22:28 | -0.41580 | -78.44206 | 14711 ft | 252 kts | 129° |
| 2026-05-06 22:28 | -0.42419 | -78.42680 | 14368 ft | 254 kts | 101° |
| 2026-05-06 22:29 | -0.42239 | -78.40948 | 14121 ft | 258 kts | 67° |
| 2026-05-06 22:29 | -0.41066 | -78.39627 | 13785 ft | 264 kts | 36° |
| 2026-05-06 22:29 | -0.39413 | -78.38765 | 13336 ft | 271 kts | 27° |
| 2026-05-06 22:29 | -0.37688 | -78.38033 | 13003 ft | 266 kts | 26° |
| 2026-05-06 22:30 | -0.36000 | -78.37312 | 12647 ft | 260 kts | 26° |
| 2026-05-06 22:30 | -0.34375 | -78.36597 | 12368 ft | 250 kts | 26° |
| 2026-05-06 22:30 | -0.32821 | -78.35901 | 12063 ft | 240 kts | 27° |
| 2026-05-06 22:30 | -0.31325 | -78.35227 | 11755 ft | 232 kts | 26° |
| 2026-05-06 22:31 | -0.29764 | -78.34790 | 11419 ft | 236 kts | 5° |
| 2026-05-06 22:31 | -0.28111 | -78.34763 | 10928 ft | 241 kts | 358° |
| 2026-05-06 22:31 | -0.26451 | -78.34829 | 10489 ft | 241 kts | 357° |
| 2026-05-06 22:31 | -0.24805 | -78.34908 | 10146 ft | 229 kts | 357° |
| 2026-05-06 22:32 | -0.23284 | -78.34976 | 9843 ft | 212 kts | 358° |
| 2026-05-06 22:32 | -0.21873 | -78.35036 | 9567 ft | 194 kts | 359° |
| 2026-05-06 22:32 | -0.20581 | -78.35091 | 9356 ft | 179 kts | 359° |
| 2026-05-06 22:32 | -0.20524 | -78.35094 | 9348 ft | 179 kts | 359° |
| 2026-05-06 22:33 | -0.19616 | -78.35133 | 9141 ft | 179 kts | 359° |
| 2026-05-06 22:33 | -0.18362 | -78.35186 | 8849 ft | 181 kts | 359° |
| 2026-05-06 22:33 | -0.17125 | -78.35243 | 8545 ft | 174 kts | 358° |
| 2026-05-06 22:33 | -0.15943 | -78.35303 | 8305 ft | 169 kts | 359° |
| 2026-05-06 22:34 | -0.14772 | -78.35346 | 8053 ft | 167 kts | 359° |
| 2026-05-06 22:34 | -0.13617 | -78.35396 | 7895 ft | 160 kts | 359° |
| 2026-05-06 22:34 | -0.12623 | -78.35435 | 7853 ft | 119 kts | 358° |
| 2026-05-06 22:34 | -0.12035 | -78.35461 | 7827 ft | 49 kts | 357° |
| 2026-05-06 22:35 | -0.11816 | -78.35483 | 7820 ft | 20 kts | 346° |
| 2026-05-06 22:35 | -0.11695 | -78.35533 | 7818 ft | 13 kts | 330° |
| 2026-05-06 22:35 | -0.11630 | -78.35575 | 7815 ft | 12 kts | 320° |
| 2026-05-06 22:35 | -0.11636 | -78.35640 | 7813 ft | 9 kts | 207° |
| 2026-05-06 22:36 | -0.11685 | -78.35643 | 7817 ft | 6 kts | 179° |
| 2026-05-06 22:36 | -0.11731 | -78.35642 | 7818 ft | 8 kts | 178° |
| 2026-05-06 22:36 | -0.11783 | -78.35640 | 7820 ft | 7 kts | 177° |
| 2026-05-06 22:36 | -0.11837 | -78.35637 | 7823 ft | 9 kts | 178° |
| 2026-05-06 22:37 | -0.11901 | -78.35635 | 7825 ft | 10 kts | 177° |
| 2026-05-06 22:37 | -0.11971 | -78.35631 | 7829 ft | 10 kts | 178° |
| 2026-05-06 22:37 | -0.12063 | -78.35628 | 7834 ft | 14 kts | 178° |
| 2026-05-06 22:37 | -0.12155 | -78.35624 | 7838 ft | 14 kts | 177° |
| 2026-05-06 22:38 | -0.12258 | -78.35619 | 7840 ft | 15 kts | 178° |
| 2026-05-06 22:38 | -0.12356 | -78.35642 | 7835 ft | 14 kts | 237° |
| 2026-05-06 22:38 | -0.12362 | -78.35751 | 7834 ft | 16 kts | 268° |
| 2026-05-06 22:38 | -0.12336 | -78.35835 | 7838 ft | 12 kts | 331° |
| 2026-05-06 22:39 | -0.12260 | -78.35856 | 7833 ft | 11 kts | 318° |
| 2026-05-06 22:39 | -0.12257 | -78.35912 | 7840 ft | 8 kts | 264° |
| 2026-05-06 22:39 | -0.12257 | -78.35931 | 7840 ft | 0 kts | 269° |